KPWK/PWK METAR and TAF weather

Enter ICAO airport designator
Station Type Date Time Source
KPWK METAR 2019/08/25 13:03 UTC NOAA

KPWK 251303Z 00000KT 10SM FEW002 BKN050 19/14 A3017 RMK AO2 T01940139


Station Type Date Time Source
KPWK Decoded METAR 2019/08/25 13:03 UTC NOAA

Station name not available
Aug 25, 2019 - 09:03 AM EDT / 2019.08.25 1303 UTC
Wind: Calm:0
Visibility: 10 mile(s):0
Sky conditions: mostly cloudy
Temperature: 66.9 F (19.4 C)
Dew Point: 57.0 F (13.9 C)
Relative Humidity: 70%
Pressure (altimeter): 30.17 in. Hg (1021 hPa)
ob: KPWK 251303Z 00000KT 10SM FEW002 BKN050 19/14 A3017 RMK AO2 T01940139
cycle: 13

Station Type Date Time Source
KPWK TAF UTC NOAA

Error!

Example: see airport list